メインページ
METAR-TAF:

METAR-TAF

空港 :

コルツォヴォ国際空港

エカテリンブルク, ロシア

緯度: 56-50N, 経度: 060-38E, 海抜: 237m

現時点の気象観測

当レポートは44分前の02:30(UTC)に作成
北西の風 14kt
気温 11°C
湿度 82%
気圧 1015 hPa
視程10km以上
高度1900ftの千切れ雲あり

METAR: USSS 210230Z 31007MPS 9999 BKN019 11/08 Q1015 R26R/250045 NOSIG RMK QFE741/0988

時間: 08:14 (03:14 UTC)

予報

当レポートは1時間15分前の01:59(UTC)に作成
予報は21日の 03時(UTC)から 22日の 03時(UTC)まで有効
西/北西の風 12kt
視程10km以上
高度1100ftの雲は散在している
高度2000ftの千切れ雲あり, 積乱雲.
21日の 03時(UTC)から 21日の 10時(UTC)まで一時的に
北西の風 23kt
視程: 3100m
弱いにわか雨
21日の 10時(UTC)から 21日の 12時(UTC)まで徐々に
視程10km以上
1,500メートル以下は雲なし、積乱雲なし
21日の 16時(UTC)から 21日の 17時(UTC)まで徐々に
西の風 6kt
視程: 5000m

TAF: USSS 210159Z 2103/2203 30006MPS 9999 SCT011 BKN020CB TEMPO 2103/2110 31012MPS 3100 -SHRA BECMG 2110/2112 CAVOK BECMG 2116/2117 28003MPS 5000 BR

4,000以上の空港の気象観測と天気予報(METAR報とTAF報)

利用可能な観測所は地図上に黄色い丸と赤い丸で示す。

丸の上にカーソルを重ねると観測所名を参照できる。

次にクリックすると気象観測と天気予報を参照できる。

マップの切り替え:黒色「×」印の緑ボタンをクリックして拡大、「-」印の緑ボタンをクリックして縮小、緑色の三角印をクリックして隣りの地図に切り替え


METAR-TAF: